createdAt,value
2022-09-20T00:01:31.970Z,72.47
2022-09-20T00:04:02.321Z,72.75
2022-09-20T00:06:31.445Z,73.08
2022-09-20T00:08:59.471Z,73.05
2022-09-20T00:11:30.689Z,73.03
2022-09-20T00:14:00.305Z,72.96
2022-09-20T00:16:34.571Z,72.47
2022-09-20T00:19:04.760Z,72.32
2022-09-20T00:21:34.610Z,71.96
2022-09-20T00:24:01.616Z,72.76
2022-09-20T00:26:29.360Z,72.11
2022-09-20T00:28:58.183Z,71.98
2022-09-20T00:31:24.704Z,71.48
2022-09-20T00:34:14.027Z,71.75
2022-09-20T00:36:40.921Z,72.37
2022-09-20T00:39:09.159Z,72.20
2022-09-20T00:41:35.601Z,72.39
2022-09-20T00:44:03.825Z,72.55
2022-09-20T00:46:40.990Z,71.97
2022-09-20T00:49:20.942Z,71.81
2022-09-20T00:51:55.266Z,72.37
2022-09-20T00:54:25.462Z,72.64
2022-09-20T00:56:52.318Z,71.98
2022-09-20T00:59:30.171Z,71.77
2022-09-20T01:02:08.337Z,71.82
2022-09-20T01:04:38.903Z,72.57
2022-09-20T01:07:09.054Z,73.43
2022-09-20T01:09:35.494Z,72.80
2022-09-20T01:12:12.966Z,72.59
2022-09-20T01:14:43.022Z,72.74
2022-09-20T01:17:10.730Z,72.53
2022-09-20T01:20:13.602Z,72.45
2022-09-20T01:23:19.729Z,73.00
2022-09-20T01:26:30.515Z,72.09
2022-09-20T01:29:35.943Z,71.68
2022-09-20T01:32:10.691Z,72.11
2022-09-20T01:34:47.086Z,71.90
2022-09-20T01:38:05.193Z,71.78
2022-09-20T01:41:10.985Z,71.88
2022-09-20T01:44:05.647Z,71.68
2022-09-20T01:46:36.979Z,71.35
2022-09-20T01:49:52.707Z,71.62
2022-09-20T01:52:52.799Z,72.16
2022-09-20T01:55:37.933Z,72.81
2022-09-20T01:59:12.788Z,72.86
2022-09-20T02:02:07.592Z,72.54
2022-09-20T02:05:06.710Z,71.81
2022-09-20T02:08:34.942Z,72.20
2022-09-20T02:11:12.905Z,72.62
2022-09-20T02:13:39.576Z,72.17
2022-09-20T02:16:49.570Z,72.65
2022-09-20T02:19:28.831Z,72.59
2022-09-20T02:22:09.916Z,72.82
2022-09-20T02:24:43.829Z,72.98
2022-09-20T02:27:35.954Z,72.38
2022-09-20T02:30:50.024Z,72.63
2022-09-20T02:33:56.743Z,72.31
2022-09-20T02:36:53.990Z,72.69
2022-09-20T02:39:40.923Z,72.51
2022-09-20T02:42:29.530Z,72.22
2022-09-20T02:45:16.668Z,73.01
2022-09-20T02:47:44.211Z,73.76
2022-09-20T02:50:29.966Z,73.12
2022-09-20T02:53:39.874Z,73.39
2022-09-20T02:56:25.125Z,72.83
2022-09-20T02:59:25.106Z,72.80
2022-09-20T03:02:51.259Z,73.34
2022-09-20T03:05:29.671Z,73.50
2022-09-20T03:08:15.105Z,72.80
2022-09-20T03:11:12.042Z,73.41
2022-09-20T03:14:25.121Z,74.19
2022-09-20T03:17:36.373Z,74.05
2022-09-20T03:20:31.070Z,74.29
2022-09-20T03:23:22.164Z,74.62
2022-09-20T03:25:56.879Z,74.53
2022-09-20T03:29:00.837Z,74.29
2022-09-20T03:31:46.237Z,74.29
2022-09-20T03:34:45.795Z,74.28
2022-09-20T03:37:26.225Z,74.59
2022-09-20T03:40:46.415Z,74.22
2022-09-20T03:44:01.626Z,74.35
2022-09-20T03:46:39.918Z,74.37
2022-09-20T03:49:52.640Z,74.34
2022-09-20T03:52:39.757Z,74.52
2022-09-20T03:55:13.982Z,74.58
2022-09-20T03:58:21.746Z,74.29
2022-09-20T04:01:25.845Z,74.66
2022-09-20T04:04:25.523Z,74.54
2022-09-20T04:07:19.126Z,74.39
2022-09-20T04:10:30.162Z,74.59
2022-09-20T04:13:25.197Z,73.91
2022-09-20T04:16:42.920Z,74.42
2022-09-20T04:19:33.138Z,74.10
2022-09-20T04:22:02.093Z,73.45
2022-09-20T04:24:28.723Z,73.36
2022-09-20T04:27:24.458Z,73.46
2022-09-20T04:30:18.510Z,73.60
2022-09-20T04:33:11.774Z,73.08
2022-09-20T04:36:24.145Z,73.69
2022-09-20T04:39:09.272Z,73.53
2022-09-20T04:42:30.904Z,73.24
2022-09-20T04:45:09.532Z,73.97
2022-09-20T04:47:50.501Z,73.72
2022-09-20T04:50:50.539Z,73.87
2022-09-20T04:53:37.949Z,73.62
2022-09-20T04:56:44.610Z,73.89
2022-09-20T04:59:49.178Z,74.29
2022-09-20T05:02:42.994Z,73.95
2022-09-20T05:05:43.021Z,74.38
2022-09-20T05:08:52.466Z,73.57
2022-09-20T05:11:37.175Z,74.01
2022-09-20T05:14:36.740Z,73.39
2022-09-20T05:17:33.872Z,73.68
2022-09-20T05:20:59.291Z,73.88
2022-09-20T05:24:19.597Z,74.12
2022-09-20T05:27:12.563Z,73.98
2022-09-20T05:30:17.328Z,73.58
2022-09-20T05:33:10.426Z,73.12
2022-09-20T05:35:50.142Z,73.61
2022-09-20T05:41:14.193Z,73.70
2022-09-20T05:44:08.359Z,72.96
2022-09-20T05:46:57.007Z,72.91
2022-09-20T05:49:51.042Z,73.09
2022-09-20T05:52:54.458Z,73.62
2022-09-20T05:56:03.274Z,73.89
2022-09-20T05:59:16.694Z,73.05
2022-09-20T06:02:15.215Z,72.86
2022-09-20T06:05:16.873Z,72.86
2022-09-20T06:08:03.596Z,72.94
2022-09-20T06:11:00.746Z,72.46
2022-09-20T06:14:00.995Z,72.91
2022-09-20T06:17:02.989Z,73.52
2022-09-20T06:19:40.406Z,72.93
2022-09-20T06:22:37.355Z,72.79
2022-09-20T06:25:09.854Z,73.12
2022-09-20T06:28:08.051Z,73.88
2022-09-20T06:30:43.267Z,73.99
2022-09-20T06:33:12.714Z,74.44
2022-09-20T06:35:50.603Z,74.77
2022-09-20T06:38:47.743Z,75.09
2022-09-20T06:41:29.732Z,74.99
2022-09-20T06:44:00.889Z,74.42
2022-09-20T06:46:35.969Z,74.21
2022-09-20T06:49:03.994Z,73.81
2022-09-20T06:51:36.591Z,73.64
2022-09-20T06:54:06.805Z,73.85
2022-09-20T06:56:36.960Z,74.06
2022-09-20T06:59:10.212Z,74.60
2022-09-20T07:01:37.447Z,74.45
2022-09-20T07:04:06.156Z,73.98
2022-09-20T07:06:33.739Z,74.07
2022-09-20T07:09:00.182Z,73.68
2022-09-20T07:11:26.762Z,73.93
2022-09-20T07:13:56.111Z,74.15
2022-09-20T07:16:22.621Z,74.70
2022-09-20T07:18:49.898Z,74.67
2022-09-20T07:21:18.708Z,74.93
2022-09-20T07:23:53.793Z,74.68
2022-09-20T07:26:29.842Z,74.62
2022-09-20T07:28:59.095Z,74.97
2022-09-20T07:31:28.495Z,75.11
2022-09-20T07:33:55.929Z,75.31
2022-09-20T07:36:22.486Z,75.46
2022-09-20T07:38:52.364Z,74.97
2022-09-20T07:41:20.526Z,75.07
2022-09-20T07:43:47.246Z,74.83
2022-09-20T07:46:13.902Z,74.87
2022-09-20T07:48:41.603Z,75.23
2022-09-20T07:51:11.199Z,74.87
2022-09-20T07:53:38.832Z,74.95
2022-09-20T07:56:14.957Z,74.90
2022-09-20T07:58:43.132Z,74.64
2022-09-20T08:01:13.287Z,74.87
2022-09-20T08:03:40.537Z,75.64
2022-09-20T08:06:11.722Z,75.20
2022-09-20T08:08:43.422Z,74.89
2022-09-20T08:11:16.960Z,75.10
2022-09-20T08:16:40.764Z,75.20
2022-09-20T08:19:07.463Z,75.33
2022-09-20T08:21:37.838Z,75.37
2022-09-20T08:24:04.563Z,75.61
2022-09-20T08:26:31.608Z,75.62
2022-09-20T08:29:00.153Z,75.29
2022-09-20T08:31:34.282Z,75.13
2022-09-20T08:34:06.259Z,75.30
2022-09-20T08:36:36.680Z,75.36
2022-09-20T08:42:10.950Z,75.16
2022-09-20T08:45:01.184Z,74.19
2022-09-20T08:47:43.824Z,73.67
2022-09-20T08:50:17.517Z,73.46
2022-09-20T08:52:52.234Z,73.53
2022-09-20T08:55:25.753Z,73.17
2022-09-20T08:57:57.366Z,72.96
2022-09-20T09:00:31.825Z,73.10
2022-09-20T09:03:05.557Z,72.67
2022-09-20T09:05:38.900Z,72.02
2022-09-20T09:08:16.572Z,72.13
2022-09-20T09:10:52.536Z,71.59
2022-09-20T09:13:32.801Z,71.42
2022-09-20T09:16:06.440Z,70.61
2022-09-20T09:18:39.602Z,70.32
2022-09-20T09:21:10.310Z,70.33
2022-09-20T09:24:09.780Z,70.34
2022-09-20T09:26:43.221Z,70.27
2022-09-20T09:29:15.129Z,69.93
2022-09-20T09:31:43.760Z,70.52
2022-09-20T09:34:38.739Z,70.82
2022-09-20T09:37:05.357Z,71.27
2022-09-20T09:39:36.878Z,70.98
2022-09-20T09:42:26.843Z,69.22
2022-09-20T09:44:53.304Z,70.10
2022-09-20T09:47:28.751Z,68.56
2022-09-20T09:50:02.571Z,68.61
2022-09-20T09:52:33.292Z,68.73
2022-09-20T09:55:05.465Z,68.62
2022-09-20T09:57:53.940Z,68.47
2022-09-20T10:00:23.760Z,67.60
2022-09-20T10:03:17.051Z,66.16
2022-09-20T10:06:01.720Z,65.87
2022-09-20T10:08:43.215Z,66.09
2022-09-20T10:11:41.731Z,65.85
2022-09-20T10:14:37.993Z,65.29
2022-09-20T10:17:42.424Z,64.88
2022-09-20T10:20:31.111Z,64.79
2022-09-20T10:26:47.948Z,64.13
2022-09-20T10:29:39.362Z,64.48
2022-09-20T10:32:35.292Z,64.47
2022-09-20T10:35:23.223Z,64.29
2022-09-20T10:38:14.727Z,62.11
2022-09-20T10:41:44.922Z,63.43
2022-09-20T10:44:38.585Z,63.49
2022-09-20T10:47:14.173Z,62.88
2022-09-20T10:50:18.235Z,62.10
2022-09-20T10:53:29.191Z,60.24
2022-09-20T10:56:29.550Z,62.13
2022-09-20T10:59:16.414Z,62.37
2022-09-20T11:01:57.908Z,61.09
2022-09-20T11:04:36.155Z,60.08
2022-09-20T11:07:56.438Z,58.39
2022-09-20T11:10:36.049Z,58.93
2022-09-20T11:13:22.167Z,58.42
2022-09-20T11:16:19.062Z,58.55
2022-09-20T11:19:02.138Z,58.37
2022-09-20T11:21:39.905Z,58.41
2022-09-20T11:24:28.516Z,58.67
2022-09-20T11:27:21.477Z,57.16
2022-09-20T11:30:17.653Z,58.37
2022-09-20T11:32:57.728Z,58.58
2022-09-20T11:35:46.091Z,58.65
2022-09-20T11:38:32.430Z,59.72
2022-09-20T11:41:16.989Z,59.97
2022-09-20T11:43:45.971Z,59.76
2022-09-20T11:46:26.557Z,58.71
2022-09-20T11:49:13.961Z,59.55
2022-09-20T11:52:05.117Z,59.96
2022-09-20T11:54:43.702Z,59.44
2022-09-20T11:57:18.394Z,59.32
2022-09-20T12:00:02.680Z,58.21
2022-09-20T12:02:45.023Z,58.70
2022-09-20T12:05:37.955Z,55.48
2022-09-20T12:08:19.291Z,56.29
2022-09-20T12:11:07.306Z,56.04
2022-09-20T12:13:41.339Z,57.34
2022-09-20T12:16:34.837Z,56.90
2022-09-20T12:19:11.624Z,56.53
2022-09-20T12:21:59.953Z,56.20
2022-09-20T12:24:44.553Z,55.99
2022-09-20T12:27:27.191Z,55.99
2022-09-20T12:30:05.902Z,55.55
2022-09-20T12:32:37.032Z,55.25
2022-09-20T12:35:35.370Z,53.81
2022-09-20T12:38:20.113Z,54.65
2022-09-20T12:41:08.250Z,54.80
2022-09-20T12:43:47.874Z,54.71
2022-09-20T12:46:34.658Z,53.74
2022-09-20T12:49:54.802Z,54.71
2022-09-20T12:52:58.589Z,55.00
2022-09-20T12:55:50.258Z,54.52
2022-09-20T12:58:32.238Z,54.52
2022-09-20T13:01:04.674Z,55.60
2022-09-20T13:03:49.609Z,55.38
2022-09-20T13:06:17.378Z,55.84
2022-09-20T13:08:56.340Z,55.43
2022-09-20T13:11:45.617Z,53.90
2022-09-20T13:14:16.495Z,54.23
2022-09-20T13:16:52.851Z,53.99
2022-09-20T13:19:41.670Z,53.69
2022-09-20T13:22:45.275Z,54.27
2022-09-20T13:25:16.631Z,53.90
2022-09-20T13:28:01.931Z,54.75
2022-09-20T13:30:32.752Z,54.67
2022-09-20T13:33:21.016Z,52.99
2022-09-20T13:35:54.495Z,54.18
2022-09-20T13:38:27.135Z,52.36
2022-09-20T13:41:08.988Z,52.58
2022-09-20T13:43:45.765Z,53.52
2022-09-20T13:46:17.859Z,53.57
2022-09-20T13:49:20.638Z,53.45
2022-09-20T13:51:48.996Z,54.05
2022-09-20T13:54:40.200Z,54.02
2022-09-20T13:57:21.226Z,54.50
2022-09-20T13:59:49.207Z,54.09
2022-09-20T14:02:34.399Z,53.75
2022-09-20T14:05:07.126Z,53.93
2022-09-20T14:07:36.291Z,54.65
2022-09-20T14:10:03.453Z,54.50
2022-09-20T14:12:30.149Z,54.12
2022-09-20T14:14:58.193Z,54.00
2022-09-20T14:17:25.708Z,53.83
2022-09-20T14:19:55.048Z,53.20
2022-09-20T14:22:29.243Z,53.48
2022-09-20T14:25:19.994Z,53.22
2022-09-20T14:27:46.674Z,52.66
2022-09-20T14:30:37.169Z,53.22
2022-09-20T14:33:12.499Z,53.60
2022-09-20T14:35:51.031Z,53.02
2022-09-20T14:38:26.833Z,53.02
2022-09-20T14:40:53.923Z,52.97
2022-09-20T14:43:34.494Z,52.82
2022-09-20T14:46:05.442Z,52.86
2022-09-20T14:48:36.378Z,53.18
2022-09-20T14:51:18.720Z,53.02
2022-09-20T14:53:52.267Z,52.76
2022-09-20T14:56:37.086Z,52.98
2022-09-20T14:59:09.257Z,52.67
2022-09-20T15:01:41.023Z,52.99
2022-09-20T15:04:18.854Z,53.08
2022-09-20T15:06:45.381Z,53.05
2022-09-20T15:09:13.895Z,53.70
2022-09-20T15:11:40.983Z,53.51
2022-09-20T15:14:08.253Z,53.82
2022-09-20T15:16:34.890Z,53.63
2022-09-20T15:19:01.746Z,53.50
2022-09-20T15:21:28.246Z,53.26
2022-09-20T15:23:54.745Z,53.08
2022-09-20T15:26:21.715Z,53.29
2022-09-20T15:28:48.950Z,53.57
2022-09-20T15:31:17.023Z,53.95
2022-09-20T15:33:43.556Z,54.27
2022-09-20T15:36:10.818Z,54.37
2022-09-20T15:38:37.378Z,54.25
2022-09-20T15:41:04.074Z,54.69
2022-09-20T15:43:31.648Z,55.46
2022-09-20T15:46:01.749Z,54.83
2022-09-20T15:48:30.823Z,54.39
2022-09-20T15:51:07.870Z,54.22
2022-09-20T15:53:46.810Z,53.92
2022-09-20T15:56:17.889Z,53.80
2022-09-20T15:58:58.906Z,53.98
2022-09-20T16:01:32.271Z,54.61
2022-09-20T16:03:59.610Z,54.91
2022-09-20T16:06:26.459Z,55.48
2022-09-20T16:08:52.989Z,55.39
2022-09-20T16:11:22.965Z,55.27
2022-09-20T16:13:54.752Z,55.08
2022-09-20T16:16:21.732Z,54.62
2022-09-20T16:19:06.954Z,54.83
2022-09-20T16:21:34.393Z,55.36
2022-09-20T16:24:01.315Z,55.19
2022-09-20T16:26:29.216Z,55.61
2022-09-20T16:28:55.712Z,55.53
2022-09-20T16:31:36.745Z,55.02
2022-09-20T16:34:06.891Z,55.27
2022-09-20T16:36:33.467Z,55.64
2022-09-20T16:39:01.110Z,56.06
2022-09-20T16:41:28.881Z,56.84
2022-09-20T16:43:56.050Z,57.68
2022-09-20T16:46:27.926Z,58.15
2022-09-20T16:48:56.720Z,58.25
2022-09-20T16:51:25.995Z,58.03
2022-09-20T16:53:55.933Z,57.78
2022-09-20T16:56:29.583Z,58.45
2022-09-20T16:58:56.256Z,58.52
2022-09-20T17:01:23.277Z,59.65
2022-09-20T17:03:49.787Z,60.73
2022-09-20T17:06:16.790Z,61.48
2022-09-20T17:08:44.763Z,62.30
2022-09-20T17:11:19.400Z,63.13
2022-09-20T17:13:47.157Z,63.51
2022-09-20T17:16:17.406Z,64.10
2022-09-20T17:18:44.191Z,64.81
2022-09-20T17:21:14.962Z,64.81
2022-09-20T17:23:50.996Z,64.92
2022-09-20T17:26:27.752Z,65.28
2022-09-20T17:28:58.319Z,66.27
2022-09-20T17:31:33.862Z,65.42
2022-09-20T17:34:07.574Z,65.96
2022-09-20T17:36:39.061Z,66.00
2022-09-20T17:39:07.085Z,66.68
2022-09-20T17:41:37.314Z,66.80
2022-09-20T17:44:11.965Z,66.28
2022-09-20T17:46:46.547Z,66.23
2022-09-20T17:49:16.719Z,66.42
2022-09-20T17:51:54.953Z,66.77
2022-09-20T17:54:24.251Z,66.87
2022-09-20T17:56:55.486Z,67.19
2022-09-20T17:59:21.944Z,67.67
2022-09-20T18:01:51.373Z,66.97
2022-09-20T18:04:20.650Z,67.27
2022-09-20T18:06:50.901Z,66.51
2022-09-20T18:09:21.228Z,66.38
2022-09-20T18:11:53.564Z,66.31
2022-09-20T18:14:24.110Z,67.16
2022-09-20T18:17:01.040Z,67.75
2022-09-20T18:19:32.658Z,67.74
2022-09-20T18:22:01.275Z,67.79
2022-09-20T18:24:27.791Z,68.14
2022-09-20T18:26:54.248Z,68.46
2022-09-20T18:29:20.722Z,68.48
2022-09-20T18:31:54.572Z,68.09
2022-09-20T18:34:25.299Z,68.77
2022-09-20T18:36:55.493Z,68.69
2022-09-20T18:39:32.338Z,68.23
2022-09-20T18:41:59.900Z,69.15
2022-09-20T18:44:28.089Z,69.53
2022-09-20T18:46:54.986Z,69.78
2022-09-20T18:49:22.511Z,69.20
2022-09-20T18:51:49.629Z,69.01
2022-09-20T18:54:17.581Z,69.23
2022-09-20T18:56:47.783Z,69.70
2022-09-20T18:59:23.022Z,70.06
2022-09-20T19:01:55.595Z,69.82
2022-09-20T19:04:59.968Z,69.93
2022-09-20T19:07:42.026Z,70.62
2022-09-20T19:10:26.473Z,70.15
2022-09-20T19:13:14.061Z,69.26
2022-09-20T19:16:15.479Z,68.51
2022-09-20T19:18:50.987Z,68.36
2022-09-20T19:21:40.661Z,68.61
2022-09-20T19:24:35.057Z,68.73
2022-09-20T19:27:01.730Z,68.34
2022-09-20T19:29:29.232Z,68.20
2022-09-20T19:31:59.222Z,67.89
2022-09-20T19:34:34.392Z,67.68
2022-09-20T19:37:19.951Z,67.55
2022-09-20T19:40:27.236Z,67.36
2022-09-20T19:43:00.510Z,67.32
2022-09-20T19:45:44.520Z,68.04
2022-09-20T19:48:39.775Z,67.93
2022-09-20T19:51:12.151Z,67.35
2022-09-20T19:53:39.533Z,67.75
2022-09-20T19:56:25.246Z,67.55
2022-09-20T19:58:54.884Z,67.69
2022-09-20T20:01:23.905Z,67.98
2022-09-20T20:03:52.495Z,68.21
2022-09-20T20:06:39.114Z,68.39
2022-09-20T20:09:16.989Z,68.19
2022-09-20T20:12:17.168Z,67.93
2022-09-20T20:15:50.431Z,68.18
2022-09-20T20:18:36.911Z,68.36
2022-09-20T20:21:16.402Z,68.53
2022-09-20T20:24:18.154Z,68.78
2022-09-20T20:26:44.574Z,68.42
2022-09-20T20:29:11.872Z,68.10
2022-09-20T20:31:38.379Z,68.50
2022-09-20T20:34:04.883Z,69.23
2022-09-20T20:36:31.346Z,69.99
2022-09-20T20:38:57.782Z,69.63
2022-09-20T20:41:25.695Z,69.38
2022-09-20T20:43:56.145Z,69.47
2022-09-20T20:46:23.719Z,70.04
2022-09-20T20:48:50.221Z,70.27
2022-09-20T20:51:20.206Z,70.87
2022-09-20T20:53:52.506Z,70.65
2022-09-20T20:56:25.588Z,70.77
2022-09-20T20:58:52.826Z,70.80
2022-09-20T21:01:23.998Z,70.36
2022-09-20T21:03:55.957Z,70.76
2022-09-20T21:06:26.195Z,70.70
2022-09-20T21:08:53.072Z,70.78
2022-09-20T21:11:26.894Z,70.70
2022-09-20T21:13:59.275Z,70.59
2022-09-20T21:16:29.666Z,70.89
2022-09-20T21:18:56.490Z,70.80
2022-09-20T21:21:26.554Z,70.66
2022-09-20T21:23:59.126Z,70.09
2022-09-20T21:26:28.240Z,70.19
2022-09-20T21:29:00.331Z,70.37
2022-09-20T21:31:32.842Z,70.60
2022-09-20T21:34:00.410Z,71.17
2022-09-20T21:36:29.677Z,71.20
2022-09-20T21:38:56.921Z,71.22
2022-09-20T21:41:31.945Z,71.17
2022-09-20T21:44:02.101Z,71.43
2022-09-20T21:46:30.848Z,71.56
2022-09-20T21:49:00.649Z,71.75
2022-09-20T21:51:29.702Z,71.47
2022-09-20T21:53:59.091Z,71.07
2022-09-20T21:56:37.584Z,71.27
2022-09-20T21:59:06.239Z,71.33
2022-09-20T22:01:36.291Z,72.35
2022-09-20T22:04:09.733Z,71.66
2022-09-20T22:06:39.810Z,71.81
2022-09-20T22:09:15.555Z,71.56
2022-09-20T22:11:47.869Z,71.20
2022-09-20T22:14:18.422Z,71.53
2022-09-20T22:16:47.139Z,72.00
2022-09-20T22:19:17.037Z,72.22
2022-09-20T22:21:49.334Z,72.62
2022-09-20T22:24:17.407Z,72.54
2022-09-20T22:26:47.850Z,72.67
2022-09-20T22:29:15.407Z,72.89
2022-09-20T22:31:45.962Z,72.70
2022-09-20T22:34:24.077Z,72.04
2022-09-20T22:36:50.789Z,71.75
2022-09-20T22:39:17.424Z,72.08
2022-09-20T22:41:44.809Z,72.58
2022-09-20T22:44:11.592Z,72.44
2022-09-20T22:46:38.715Z,72.75
2022-09-20T22:49:07.734Z,73.12
2022-09-20T22:51:34.747Z,73.50
2022-09-20T22:54:07.455Z,73.15
2022-09-20T22:56:34.491Z,72.38
2022-09-20T22:59:06.999Z,72.42
2022-09-20T23:01:41.036Z,72.72
2022-09-20T23:04:11.866Z,72.93
2022-09-20T23:06:47.639Z,73.13
2022-09-20T23:09:17.679Z,73.16
2022-09-20T23:11:45.753Z,72.38
2022-09-20T23:14:17.064Z,72.92
2022-09-20T23:16:44.838Z,72.94
2022-09-20T23:19:13.446Z,73.09
2022-09-20T23:21:42.426Z,72.85
2022-09-20T23:24:16.528Z,72.99
2022-09-20T23:26:44.426Z,72.59
2022-09-20T23:29:15.460Z,72.95
2022-09-20T23:31:46.487Z,73.13
2022-09-20T23:34:15.369Z,72.89
2022-09-20T23:36:43.569Z,73.35
2022-09-20T23:39:11.699Z,72.97
2022-09-20T23:41:38.677Z,72.51
2022-09-20T23:44:06.479Z,72.82
2022-09-20T23:46:33.528Z,73.38
2022-09-20T23:49:00.254Z,73.20
2022-09-20T23:51:28.892Z,73.57
2022-09-20T23:53:55.987Z,73.11
2022-09-20T23:56:23.843Z,73.40
2022-09-20T23:58:51.027Z,73.00
